sensor_id;sensor_type;location;lat;lon;timestamp;temperature;humidity
22379;DHT22;11357;49.990;7.370;2023-03-04T00:01:49;3.30;84.90
22379;DHT22;11357;49.990;7.370;2023-03-04T00:04:16;3.40;84.80
22379;DHT22;11357;49.990;7.370;2023-03-04T00:06:41;3.40;84.60
22379;DHT22;11357;49.990;7.370;2023-03-04T00:09:07;3.50;84.50
22379;DHT22;11357;49.990;7.370;2023-03-04T00:11:33;3.50;84.40
22379;DHT22;11357;49.990;7.370;2023-03-04T00:13:58;3.50;84.30
22379;DHT22;11357;49.990;7.370;2023-03-04T00:16:24;3.50;84.20
22379;DHT22;11357;49.990;7.370;2023-03-04T00:18:54;3.50;84.20
22379;DHT22;11357;49.990;7.370;2023-03-04T00:21:20;3.50;84.20
22379;DHT22;11357;49.990;7.370;2023-03-04T00:23:47;3.50;84.20
22379;DHT22;11357;49.990;7.370;2023-03-04T00:26:13;3.50;84.00
22379;DHT22;11357;49.990;7.370;2023-03-04T00:28:39;3.50;84.00
22379;DHT22;11357;49.990;7.370;2023-03-04T00:31:06;3.50;83.90
22379;DHT22;11357;49.990;7.370;2023-03-04T00:33:32;3.50;83.70
22379;DHT22;11357;49.990;7.370;2023-03-04T00:35:58;3.50;83.70
22379;DHT22;11357;49.990;7.370;2023-03-04T00:38:24;3.50;83.70
22379;DHT22;11357;49.990;7.370;2023-03-04T00:40:50;3.50;83.60
22379;DHT22;11357;49.990;7.370;2023-03-04T00:43:16;3.50;83.60
22379;DHT22;11357;49.990;7.370;2023-03-04T00:45:41;3.50;83.50
22379;DHT22;11357;49.990;7.370;2023-03-04T00:48:07;3.40;83.50
22379;DHT22;11357;49.990;7.370;2023-03-04T00:50:33;3.40;83.40
22379;DHT22;11357;49.990;7.370;2023-03-04T00:52:58;3.40;83.40
22379;DHT22;11357;49.990;7.370;2023-03-04T00:55:24;3.40;83.40
22379;DHT22;11357;49.990;7.370;2023-03-04T00:57:50;3.40;83.30
22379;DHT22;11357;49.990;7.370;2023-03-04T01:00:16;3.40;83.30
22379;DHT22;11357;49.990;7.370;2023-03-04T01:02:41;3.30;83.20
22379;DHT22;11357;49.990;7.370;2023-03-04T01:05:08;3.30;83.20
22379;DHT22;11357;49.990;7.370;2023-03-04T01:07:33;3.30;83.30
22379;DHT22;11357;49.990;7.370;2023-03-04T01:09:59;3.20;83.40
22379;DHT22;11357;49.990;7.370;2023-03-04T01:12:25;3.20;83.60
22379;DHT22;11357;49.990;7.370;2023-03-04T01:14:50;3.20;83.60
22379;DHT22;11357;49.990;7.370;2023-03-04T01:17:16;3.20;83.60
22379;DHT22;11357;49.990;7.370;2023-03-04T01:19:42;3.20;83.60
22379;DHT22;11357;49.990;7.370;2023-03-04T01:22:08;3.20;83.50
22379;DHT22;11357;49.990;7.370;2023-03-04T01:24:35;3.20;83.50
22379;DHT22;11357;49.990;7.370;2023-03-04T01:27:01;3.20;83.40
22379;DHT22;11357;49.990;7.370;2023-03-04T01:29:26;3.20;83.30
22379;DHT22;11357;49.990;7.370;2023-03-04T01:31:52;3.20;83.30
22379;DHT22;11357;49.990;7.370;2023-03-04T01:34:17;3.20;83.30
22379;DHT22;11357;49.990;7.370;2023-03-04T01:36:43;3.20;83.20
22379;DHT22;11357;49.990;7.370;2023-03-04T01:39:09;3.20;83.20
22379;DHT22;11357;49.990;7.370;2023-03-04T01:41:34;3.20;83.10
22379;DHT22;11357;49.990;7.370;2023-03-04T01:44:00;3.20;83.00
22379;DHT22;11357;49.990;7.370;2023-03-04T01:46:28;3.20;83.00
22379;DHT22;11357;49.990;7.370;2023-03-04T01:48:54;3.20;83.00
22379;DHT22;11357;49.990;7.370;2023-03-04T01:51:20;3.20;82.90
22379;DHT22;11357;49.990;7.370;2023-03-04T01:53:48;3.20;82.90
22379;DHT22;11357;49.990;7.370;2023-03-04T01:56:43;3.20;82.80
22379;DHT22;11357;49.990;7.370;2023-03-04T01:59:17;3.20;82.70
22379;DHT22;11357;49.990;7.370;2023-03-04T02:01:48;3.20;82.70
22379;DHT22;11357;49.990;7.370;2023-03-04T02:04:16;3.20;82.80
22379;DHT22;11357;49.990;7.370;2023-03-04T02:06:43;3.20;82.70
22379;DHT22;11357;49.990;7.370;2023-03-04T02:09:09;3.20;82.70
22379;DHT22;11357;49.990;7.370;2023-03-04T02:11:36;3.20;82.70
22379;DHT22;11357;49.990;7.370;2023-03-04T02:14:03;3.30;82.70
22379;DHT22;11357;49.990;7.370;2023-03-04T02:16:30;3.30;82.60
22379;DHT22;11357;49.990;7.370;2023-03-04T02:18:56;3.30;82.70
22379;DHT22;11357;49.990;7.370;2023-03-04T02:21:32;3.30;82.70
22379;DHT22;11357;49.990;7.370;2023-03-04T02:24:28;3.30;82.70
22379;DHT22;11357;49.990;7.370;2023-03-04T02:26:55;3.30;82.80
22379;DHT22;11357;49.990;7.370;2023-03-04T02:29:21;3.30;82.60
22379;DHT22;11357;49.990;7.370;2023-03-04T02:31:51;3.30;82.60
22379;DHT22;11357;49.990;7.370;2023-03-04T02:34:21;3.30;82.60
22379;DHT22;11357;49.990;7.370;2023-03-04T02:36:49;3.40;82.70
22379;DHT22;11357;49.990;7.370;2023-03-04T02:39:34;3.40;82.60
22379;DHT22;11357;49.990;7.370;2023-03-04T02:42:01;3.40;83.40
22379;DHT22;11357;49.990;7.370;2023-03-04T02:44:29;3.40;82.60
22379;DHT22;11357;49.990;7.370;2023-03-04T02:46:56;3.40;82.60
22379;DHT22;11357;49.990;7.370;2023-03-04T02:49:23;3.40;82.60
22379;DHT22;11357;49.990;7.370;2023-03-04T02:51:59;3.50;82.60
22379;DHT22;11357;49.990;7.370;2023-03-04T02:54:25;3.40;82.50
22379;DHT22;11357;49.990;7.370;2023-03-04T02:56:53;3.50;82.60
22379;DHT22;11357;49.990;7.370;2023-03-04T02:59:21;3.50;82.60
22379;DHT22;11357;49.990;7.370;2023-03-04T03:01:46;3.50;82.60
22379;DHT22;11357;49.990;7.370;2023-03-04T03:04:12;3.50;82.50
22379;DHT22;11357;49.990;7.370;2023-03-04T03:06:39;3.60;82.60
22379;DHT22;11357;49.990;7.370;2023-03-04T03:09:05;3.60;82.50
22379;DHT22;11357;49.990;7.370;2023-03-04T03:11:30;3.60;82.50
22379;DHT22;11357;49.990;7.370;2023-03-04T03:13:56;3.60;82.50
22379;DHT22;11357;49.990;7.370;2023-03-04T03:16:22;3.70;82.50
22379;DHT22;11357;49.990;7.370;2023-03-04T03:18:48;3.70;82.50
22379;DHT22;11357;49.990;7.370;2023-03-04T03:21:13;3.70;82.40
22379;DHT22;11357;49.990;7.370;2023-03-04T03:23:39;3.70;82.40
22379;DHT22;11357;49.990;7.370;2023-03-04T03:26:05;3.70;82.40
22379;DHT22;11357;49.990;7.370;2023-03-04T03:28:30;3.80;82.40
22379;DHT22;11357;49.990;7.370;2023-03-04T03:30:56;3.80;82.40
22379;DHT22;11357;49.990;7.370;2023-03-04T03:33:22;3.80;82.40
22379;DHT22;11357;49.990;7.370;2023-03-04T03:35:48;3.80;82.30
22379;DHT22;11357;49.990;7.370;2023-03-04T03:38:14;3.80;82.40
22379;DHT22;11357;49.990;7.370;2023-03-04T03:40:40;3.80;82.40
22379;DHT22;11357;49.990;7.370;2023-03-04T03:43:05;3.90;82.40
22379;DHT22;11357;49.990;7.370;2023-03-04T03:45:31;3.90;82.30
22379;DHT22;11357;49.990;7.370;2023-03-04T03:47:57;3.90;82.40
22379;DHT22;11357;49.990;7.370;2023-03-04T03:50:22;3.90;82.40
22379;DHT22;11357;49.990;7.370;2023-03-04T03:52:48;3.90;82.40
22379;DHT22;11357;49.990;7.370;2023-03-04T03:55:14;3.90;82.40
22379;DHT22;11357;49.990;7.370;2023-03-04T03:57:39;3.90;82.40
22379;DHT22;11357;49.990;7.370;2023-03-04T04:00:07;4.00;82.50
22379;DHT22;11357;49.990;7.370;2023-03-04T04:02:33;4.00;82.40
22379;DHT22;11357;49.990;7.370;2023-03-04T04:04:58;3.90;82.40
22379;DHT22;11357;49.990;7.370;2023-03-04T04:07:24;3.90;82.50
22379;DHT22;11357;49.990;7.370;2023-03-04T04:09:49;3.90;82.60
22379;DHT22;11357;49.990;7.370;2023-03-04T04:12:16;3.80;82.80
22379;DHT22;11357;49.990;7.370;2023-03-04T04:14:42;3.80;83.30
22379;DHT22;11357;49.990;7.370;2023-03-04T04:17:09;3.80;83.60
22379;DHT22;11357;49.990;7.370;2023-03-04T04:19:35;3.80;84.20
22379;DHT22;11357;49.990;7.370;2023-03-04T04:22:01;3.80;84.50
22379;DHT22;11357;49.990;7.370;2023-03-04T04:24:27;3.80;84.70
22379;DHT22;11357;49.990;7.370;2023-03-04T04:26:52;3.90;84.90
22379;DHT22;11357;49.990;7.370;2023-03-04T04:29:18;3.90;85.00
22379;DHT22;11357;49.990;7.370;2023-03-04T04:31:44;3.90;85.00
22379;DHT22;11357;49.990;7.370;2023-03-04T04:34:09;3.90;85.00
22379;DHT22;11357;49.990;7.370;2023-03-04T04:36:35;4.00;85.20
22379;DHT22;11357;49.990;7.370;2023-03-04T04:39:01;4.00;85.10
22379;DHT22;11357;49.990;7.370;2023-03-04T04:41:30;4.00;85.20
22379;DHT22;11357;49.990;7.370;2023-03-04T04:43:59;4.00;85.20
22379;DHT22;11357;49.990;7.370;2023-03-04T04:46:25;4.00;85.20
22379;DHT22;11357;49.990;7.370;2023-03-04T04:48:50;4.00;85.20
22379;DHT22;11357;49.990;7.370;2023-03-04T04:51:16;3.90;85.20
22379;DHT22;11357;49.990;7.370;2023-03-04T04:53:42;4.00;85.30
22379;DHT22;11357;49.990;7.370;2023-03-04T04:56:21;4.00;85.20
22379;DHT22;11357;49.990;7.370;2023-03-04T04:58:47;4.00;85.90
22379;DHT22;11357;49.990;7.370;2023-03-04T05:01:13;4.00;85.20
22379;DHT22;11357;49.990;7.370;2023-03-04T05:03:40;4.00;85.20
22379;DHT22;11357;49.990;7.370;2023-03-04T05:06:07;4.00;85.10
22379;DHT22;11357;49.990;7.370;2023-03-04T05:08:33;4.00;85.10
22379;DHT22;11357;49.990;7.370;2023-03-04T05:10:59;4.00;85.20
22379;DHT22;11357;49.990;7.370;2023-03-04T05:13:25;4.00;85.20
22379;DHT22;11357;49.990;7.370;2023-03-04T05:15:51;4.00;85.20
22379;DHT22;11357;49.990;7.370;2023-03-04T05:18:18;4.00;85.10
22379;DHT22;11357;49.990;7.370;2023-03-04T05:20:44;4.00;85.00
22379;DHT22;11357;49.990;7.370;2023-03-04T05:23:10;4.00;85.00
22379;DHT22;11357;49.990;7.370;2023-03-04T05:25:35;4.00;84.90
22379;DHT22;11357;49.990;7.370;2023-03-04T05:28:01;4.00;84.90
22379;DHT22;11357;49.990;7.370;2023-03-04T05:30:29;4.00;84.90
22379;DHT22;11357;49.990;7.370;2023-03-04T05:32:54;4.00;84.70
22379;DHT22;11357;49.990;7.370;2023-03-04T05:35:20;4.00;84.70
22379;DHT22;11357;49.990;7.370;2023-03-04T05:37:46;4.00;84.60
22379;DHT22;11357;49.990;7.370;2023-03-04T05:40:12;4.10;84.60
22379;DHT22;11357;49.990;7.370;2023-03-04T05:42:38;4.20;84.40
22379;DHT22;11357;49.990;7.370;2023-03-04T05:45:04;4.20;84.20
22379;DHT22;11357;49.990;7.370;2023-03-04T05:47:29;4.30;84.10
22379;DHT22;11357;49.990;7.370;2023-03-04T05:49:55;4.30;84.00
22379;DHT22;11357;49.990;7.370;2023-03-04T05:52:22;4.30;83.80
22379;DHT22;11357;49.990;7.370;2023-03-04T05:54:48;4.30;83.70
22379;DHT22;11357;49.990;7.370;2023-03-04T05:57:13;4.40;83.80
22379;DHT22;11357;49.990;7.370;2023-03-04T05:59:39;4.40;83.70
22379;DHT22;11357;49.990;7.370;2023-03-04T06:02:04;4.40;83.60
22379;DHT22;11357;49.990;7.370;2023-03-04T06:04:30;4.40;83.70
22379;DHT22;11357;49.990;7.370;2023-03-04T06:06:56;4.40;83.70
22379;DHT22;11357;49.990;7.370;2023-03-04T06:09:22;4.40;83.50
22379;DHT22;11357;49.990;7.370;2023-03-04T06:11:47;4.40;83.50
22379;DHT22;11357;49.990;7.370;2023-03-04T06:14:14;4.50;83.50
22379;DHT22;11357;49.990;7.370;2023-03-04T06:16:40;4.50;83.40
22379;DHT22;11357;49.990;7.370;2023-03-04T06:19:05;4.60;83.40
22379;DHT22;11357;49.990;7.370;2023-03-04T06:21:31;4.60;83.90
22379;DHT22;11357;49.990;7.370;2023-03-04T06:23:57;4.70;83.20
22379;DHT22;11357;49.990;7.370;2023-03-04T06:26:22;4.70;82.90
22379;DHT22;11357;49.990;7.370;2023-03-04T06:28:48;4.80;82.80
22379;DHT22;11357;49.990;7.370;2023-03-04T06:31:14;4.80;82.70
22379;DHT22;11357;49.990;7.370;2023-03-04T06:33:39;4.80;82.60
22379;DHT22;11357;49.990;7.370;2023-03-04T06:36:05;4.90;82.50
22379;DHT22;11357;49.990;7.370;2023-03-04T06:38:31;4.90;82.40
22379;DHT22;11357;49.990;7.370;2023-03-04T06:41:08;4.90;82.30
22379;DHT22;11357;49.990;7.370;2023-03-04T06:43:34;4.90;82.30
22379;DHT22;11357;49.990;7.370;2023-03-04T06:46:00;4.90;82.10
22379;DHT22;11357;49.990;7.370;2023-03-04T06:48:25;5.00;82.10
22379;DHT22;11357;49.990;7.370;2023-03-04T06:50:52;5.00;82.00
22379;DHT22;11357;49.990;7.370;2023-03-04T06:53:17;5.00;82.00
22379;DHT22;11357;49.990;7.370;2023-03-04T06:55:43;5.00;82.00
22379;DHT22;11357;49.990;7.370;2023-03-04T06:58:09;5.00;81.90
22379;DHT22;11357;49.990;7.370;2023-03-04T07:00:34;5.00;81.80
22379;DHT22;11357;49.990;7.370;2023-03-04T07:03:00;5.10;81.90
22379;DHT22;11357;49.990;7.370;2023-03-04T07:05:26;5.10;81.70
22379;DHT22;11357;49.990;7.370;2023-03-04T07:07:52;5.10;81.70
22379;DHT22;11357;49.990;7.370;2023-03-04T07:10:18;5.10;81.70
22379;DHT22;11357;49.990;7.370;2023-03-04T07:12:44;5.10;81.80
22379;DHT22;11357;49.990;7.370;2023-03-04T07:15:10;5.20;81.70
22379;DHT22;11357;49.990;7.370;2023-03-04T07:17:35;5.20;81.60
22379;DHT22;11357;49.990;7.370;2023-03-04T07:20:01;5.20;81.60
22379;DHT22;11357;49.990;7.370;2023-03-04T07:22:27;5.20;81.60
22379;DHT22;11357;49.990;7.370;2023-03-04T07:24:53;5.20;81.70
22379;DHT22;11357;49.990;7.370;2023-03-04T07:27:18;5.20;81.70
22379;DHT22;11357;49.990;7.370;2023-03-04T07:29:44;5.10;81.80
22379;DHT22;11357;49.990;7.370;2023-03-04T07:32:10;5.10;82.10
22379;DHT22;11357;49.990;7.370;2023-03-04T07:34:35;5.10;82.30
22379;DHT22;11357;49.990;7.370;2023-03-04T07:37:01;5.20;82.20
22379;DHT22;11357;49.990;7.370;2023-03-04T07:39:27;5.20;82.10
22379;DHT22;11357;49.990;7.370;2023-03-04T07:41:53;5.20;82.30
22379;DHT22;11357;49.990;7.370;2023-03-04T07:44:18;5.20;82.50
22379;DHT22;11357;49.990;7.370;2023-03-04T07:46:45;5.20;82.70
22379;DHT22;11357;49.990;7.370;2023-03-04T07:49:12;5.10;82.60
22379;DHT22;11357;49.990;7.370;2023-03-04T07:51:38;5.10;82.70
22379;DHT22;11357;49.990;7.370;2023-03-04T07:54:04;5.10;82.80
22379;DHT22;11357;49.990;7.370;2023-03-04T07:56:32;5.10;82.70
22379;DHT22;11357;49.990;7.370;2023-03-04T07:58:58;5.10;82.80
22379;DHT22;11357;49.990;7.370;2023-03-04T08:01:38;5.10;82.90
22379;DHT22;11357;49.990;7.370;2023-03-04T08:04:05;5.10;82.90
22379;DHT22;11357;49.990;7.370;2023-03-04T08:06:32;5.10;83.00
22379;DHT22;11357;49.990;7.370;2023-03-04T08:09:00;5.10;83.00
22379;DHT22;11357;49.990;7.370;2023-03-04T08:11:28;5.20;82.90
22379;DHT22;11357;49.990;7.370;2023-03-04T08:13:54;5.20;82.90
22379;DHT22;11357;49.990;7.370;2023-03-04T08:16:21;5.20;82.70
22379;DHT22;11357;49.990;7.370;2023-03-04T08:18:49;5.10;82.60
22379;DHT22;11357;49.990;7.370;2023-03-04T08:21:16;5.10;82.70
22379;DHT22;11357;49.990;7.370;2023-03-04T08:23:45;5.20;82.60
22379;DHT22;11357;49.990;7.370;2023-03-04T08:26:18;5.30;82.60
22379;DHT22;11357;49.990;7.370;2023-03-04T08:28:44;5.30;82.50
22379;DHT22;11357;49.990;7.370;2023-03-04T08:31:12;5.30;82.30
22379;DHT22;11357;49.990;7.370;2023-03-04T08:33:37;5.30;82.40
22379;DHT22;11357;49.990;7.370;2023-03-04T08:36:03;5.40;83.00
22379;DHT22;11357;49.990;7.370;2023-03-04T08:38:29;5.40;82.30
22379;DHT22;11357;49.990;7.370;2023-03-04T08:40:56;5.40;82.30
22379;DHT22;11357;49.990;7.370;2023-03-04T08:43:23;5.40;82.30
22379;DHT22;11357;49.990;7.370;2023-03-04T08:45:49;5.40;82.20
22379;DHT22;11357;49.990;7.370;2023-03-04T08:48:17;5.40;82.10
22379;DHT22;11357;49.990;7.370;2023-03-04T08:50:44;5.40;82.30
22379;DHT22;11357;49.990;7.370;2023-03-04T08:53:10;5.50;82.20
22379;DHT22;11357;49.990;7.370;2023-03-04T08:55:40;5.60;82.20
22379;DHT22;11357;49.990;7.370;2023-03-04T08:58:07;5.60;82.10
22379;DHT22;11357;49.990;7.370;2023-03-04T09:00:35;5.70;82.00
22379;DHT22;11357;49.990;7.370;2023-03-04T09:03:02;5.70;81.80
22379;DHT22;11357;49.990;7.370;2023-03-04T09:05:29;5.70;81.80
22379;DHT22;11357;49.990;7.370;2023-03-04T09:07:55;5.70;81.80
22379;DHT22;11357;49.990;7.370;2023-03-04T09:10:20;5.80;81.80
22379;DHT22;11357;49.990;7.370;2023-03-04T09:12:46;5.80;81.70
22379;DHT22;11357;49.990;7.370;2023-03-04T09:15:12;5.80;81.60
22379;DHT22;11357;49.990;7.370;2023-03-04T09:17:39;5.80;81.60
22379;DHT22;11357;49.990;7.370;2023-03-04T09:20:07;5.80;81.60
22379;DHT22;11357;49.990;7.370;2023-03-04T09:22:35;5.90;81.60
22379;DHT22;11357;49.990;7.370;2023-03-04T09:25:01;6.00;81.60
22379;DHT22;11357;49.990;7.370;2023-03-04T09:27:27;5.90;81.30
22379;DHT22;11357;49.990;7.370;2023-03-04T09:29:52;6.00;81.40
22379;DHT22;11357;49.990;7.370;2023-03-04T09:32:18;6.00;81.40
22379;DHT22;11357;49.990;7.370;2023-03-04T09:34:44;6.00;81.30
22379;DHT22;11357;49.990;7.370;2023-03-04T09:37:09;6.00;81.10
22379;DHT22;11357;49.990;7.370;2023-03-04T09:39:35;6.00;81.10
22379;DHT22;11357;49.990;7.370;2023-03-04T09:42:01;6.00;81.20
22379;DHT22;11357;49.990;7.370;2023-03-04T09:44:38;6.00;81.30
22379;DHT22;11357;49.990;7.370;2023-03-04T09:47:11;6.00;81.20
22379;DHT22;11357;49.990;7.370;2023-03-04T09:49:39;6.00;81.30
22379;DHT22;11357;49.990;7.370;2023-03-04T09:55:11;6.00;81.10
22379;DHT22;11357;49.990;7.370;2023-03-04T10:06:03;6.10;80.90
22379;DHT22;11357;49.990;7.370;2023-03-04T10:19:55;6.40;80.60
22379;DHT22;11357;49.990;7.370;2023-03-04T10:22:31;6.40;80.50
22379;DHT22;11357;49.990;7.370;2023-03-04T10:24:58;6.40;80.50
22379;DHT22;11357;49.990;7.370;2023-03-04T10:27:26;6.40;80.30
22379;DHT22;11357;49.990;7.370;2023-03-04T10:29:55;6.40;80.00
22379;DHT22;11357;49.990;7.370;2023-03-04T10:32:21;6.40;80.00
22379;DHT22;11357;49.990;7.370;2023-03-04T10:34:47;6.40;80.00
22379;DHT22;11357;49.990;7.370;2023-03-04T10:37:12;6.50;80.00
22379;DHT22;11357;49.990;7.370;2023-03-04T10:39:41;6.50;80.00
22379;DHT22;11357;49.990;7.370;2023-03-04T10:44:59;6.70;79.90
22379;DHT22;11357;49.990;7.370;2023-03-04T10:47:27;6.70;79.40
22379;DHT22;11357;49.990;7.370;2023-03-04T10:49:55;6.70;79.10
22379;DHT22;11357;49.990;7.370;2023-03-04T10:54:58;6.70;78.90
22379;DHT22;11357;49.990;7.370;2023-03-04T10:59:59;6.70;78.60
22379;DHT22;11357;49.990;7.370;2023-03-04T11:02:35;6.80;78.50
22379;DHT22;11357;49.990;7.370;2023-03-04T11:05:21;6.80;78.30
22379;DHT22;11357;49.990;7.370;2023-03-04T11:07:59;6.80;78.40
22379;DHT22;11357;49.990;7.370;2023-03-04T11:10:38;7.00;78.20
22379;DHT22;11357;49.990;7.370;2023-03-04T11:16:01;6.90;77.80
22379;DHT22;11357;49.990;7.370;2023-03-04T11:18:52;6.80;77.90
22379;DHT22;11357;49.990;7.370;2023-03-04T11:21:28;6.90;78.00
22379;DHT22;11357;49.990;7.370;2023-03-04T11:24:04;7.00;78.00
22379;DHT22;11357;49.990;7.370;2023-03-04T11:37:20;7.10;77.50
22379;DHT22;11357;49.990;7.370;2023-03-04T11:40:00;7.10;77.50
22379;DHT22;11357;49.990;7.370;2023-03-04T11:45:15;7.10;77.10
22379;DHT22;11357;49.990;7.370;2023-03-04T11:47:47;7.00;77.20
22379;DHT22;11357;49.990;7.370;2023-03-04T11:50:28;7.10;77.10
22379;DHT22;11357;49.990;7.370;2023-03-04T11:53:03;7.10;77.30
22379;DHT22;11357;49.990;7.370;2023-03-04T11:58:58;7.10;77.10
22379;DHT22;11357;49.990;7.370;2023-03-04T12:04:03;7.20;77.10
22379;DHT22;11357;49.990;7.370;2023-03-04T12:17:31;7.60;76.10
22379;DHT22;11357;49.990;7.370;2023-03-04T12:28:40;8.20;74.80
22379;DHT22;11357;49.990;7.370;2023-03-04T12:36:34;8.40;74.60
22379;DHT22;11357;49.990;7.370;2023-03-04T12:55:38;8.40;74.00
22379;DHT22;11357;49.990;7.370;2023-03-04T12:58:05;8.30;73.30
22379;DHT22;11357;49.990;7.370;2023-03-04T13:00:49;8.30;73.30
22379;DHT22;11357;49.990;7.370;2023-03-04T13:08:35;8.30;73.50
22379;DHT22;11357;49.990;7.370;2023-03-04T13:16:41;8.40;73.20
22379;DHT22;11357;49.990;7.370;2023-03-04T13:19:46;8.50;73.30
22379;DHT22;11357;49.990;7.370;2023-03-04T13:28:17;8.60;73.10
22379;DHT22;11357;49.990;7.370;2023-03-04T13:41:23;9.00;72.40
22379;DHT22;11357;49.990;7.370;2023-03-04T13:44:00;8.90;72.30
22379;DHT22;11357;49.990;7.370;2023-03-04T13:46:27;8.90;72.30
22379;DHT22;11357;49.990;7.370;2023-03-04T14:04:20;9.00;72.40
22379;DHT22;11357;49.990;7.370;2023-03-04T14:06:50;9.00;72.10
22379;DHT22;11357;49.990;7.370;2023-03-04T14:09:52;8.90;72.10
22379;DHT22;11357;49.990;7.370;2023-03-04T14:12:18;8.80;73.00
22379;DHT22;11357;49.990;7.370;2023-03-04T14:14:49;8.70;72.00
22379;DHT22;11357;49.990;7.370;2023-03-04T14:17:28;8.50;72.20
22379;DHT22;11357;49.990;7.370;2023-03-04T14:19:55;8.40;72.40
22379;DHT22;11357;49.990;7.370;2023-03-04T14:27:40;8.30;72.90
22379;DHT22;11357;49.990;7.370;2023-03-04T14:30:23;8.40;72.80
22379;DHT22;11357;49.990;7.370;2023-03-04T14:32:51;8.40;72.80
22379;DHT22;11357;49.990;7.370;2023-03-04T14:35:28;8.50;72.80
22379;DHT22;11357;49.990;7.370;2023-03-04T14:40:32;8.60;72.80
22379;DHT22;11357;49.990;7.370;2023-03-04T14:43:04;8.50;72.60
22379;DHT22;11357;49.990;7.370;2023-03-04T14:45:31;8.50;72.80
22379;DHT22;11357;49.990;7.370;2023-03-04T14:48:04;8.50;72.80
22379;DHT22;11357;49.990;7.370;2023-03-04T14:50:30;8.50;73.00
22379;DHT22;11357;49.990;7.370;2023-03-04T14:55:31;8.50;73.00
22379;DHT22;11357;49.990;7.370;2023-03-04T14:58:27;8.50;73.00
22379;DHT22;11357;49.990;7.370;2023-03-04T15:01:32;8.50;73.30
22379;DHT22;11357;49.990;7.370;2023-03-04T15:04:09;8.50;73.40
22379;DHT22;11357;49.990;7.370;2023-03-04T15:06:53;8.50;73.40
22379;DHT22;11357;49.990;7.370;2023-03-04T15:09:22;8.50;73.80
22379;DHT22;11357;49.990;7.370;2023-03-04T15:12:02;8.50;73.50
22379;DHT22;11357;49.990;7.370;2023-03-04T15:14:48;8.40;73.70
22379;DHT22;11357;49.990;7.370;2023-03-04T15:17:36;8.40;73.90
22379;DHT22;11357;49.990;7.370;2023-03-04T15:25:12;8.50;73.40
22379;DHT22;11357;49.990;7.370;2023-03-04T15:27:44;8.50;73.70
22379;DHT22;11357;49.990;7.370;2023-03-04T15:30:22;8.40;74.00
22379;DHT22;11357;49.990;7.370;2023-03-04T15:32:48;8.40;74.20
22379;DHT22;11357;49.990;7.370;2023-03-04T15:35:16;8.40;74.10
22379;DHT22;11357;49.990;7.370;2023-03-04T15:37:42;8.40;74.20
22379;DHT22;11357;49.990;7.370;2023-03-04T15:40:40;8.40;74.30
22379;DHT22;11357;49.990;7.370;2023-03-04T15:43:12;8.40;74.40
22379;DHT22;11357;49.990;7.370;2023-03-04T15:45:39;8.60;74.30
22379;DHT22;11357;49.990;7.370;2023-03-04T15:48:07;8.60;74.10
22379;DHT22;11357;49.990;7.370;2023-03-04T15:50:35;8.70;74.10
22379;DHT22;11357;49.990;7.370;2023-03-04T15:53:05;8.70;74.00
22379;DHT22;11357;49.990;7.370;2023-03-04T15:55:31;8.80;73.80
22379;DHT22;11357;49.990;7.370;2023-03-04T15:57:59;8.80;73.90
22379;DHT22;11357;49.990;7.370;2023-03-04T16:00:27;8.80;73.90
22379;DHT22;11357;49.990;7.370;2023-03-04T16:02:53;8.80;73.80
22379;DHT22;11357;49.990;7.370;2023-03-04T16:05:18;8.80;73.70
22379;DHT22;11357;49.990;7.370;2023-03-04T16:07:48;8.80;73.70
22379;DHT22;11357;49.990;7.370;2023-03-04T16:12:43;8.70;73.90
22379;DHT22;11357;49.990;7.370;2023-03-04T16:15:13;8.70;73.80
22379;DHT22;11357;49.990;7.370;2023-03-04T16:17:39;8.70;73.90
22379;DHT22;11357;49.990;7.370;2023-03-04T16:20:10;8.80;73.90
22379;DHT22;11357;49.990;7.370;2023-03-04T16:22:37;8.80;73.90
22379;DHT22;11357;49.990;7.370;2023-03-04T16:25:03;8.80;74.10
22379;DHT22;11357;49.990;7.370;2023-03-04T16:27:29;8.80;74.10
22379;DHT22;11357;49.990;7.370;2023-03-04T16:29:55;8.70;74.10
22379;DHT22;11357;49.990;7.370;2023-03-04T16:32:21;8.70;74.20
22379;DHT22;11357;49.990;7.370;2023-03-04T16:34:46;8.70;74.20
22379;DHT22;11357;49.990;7.370;2023-03-04T16:37:18;8.70;74.10
22379;DHT22;11357;49.990;7.370;2023-03-04T16:39:44;8.70;74.20
22379;DHT22;11357;49.990;7.370;2023-03-04T16:42:14;8.70;74.10
22379;DHT22;11357;49.990;7.370;2023-03-04T16:44:41;8.60;74.20
22379;DHT22;11357;49.990;7.370;2023-03-04T16:47:07;8.60;74.40
22379;DHT22;11357;49.990;7.370;2023-03-04T16:49:33;8.60;74.50
22379;DHT22;11357;49.990;7.370;2023-03-04T16:51:58;8.50;74.50
22379;DHT22;11357;49.990;7.370;2023-03-04T16:54:29;8.50;74.60
22379;DHT22;11357;49.990;7.370;2023-03-04T16:56:57;8.50;74.70
22379;DHT22;11357;49.990;7.370;2023-03-04T16:59:23;8.50;74.70
22379;DHT22;11357;49.990;7.370;2023-03-04T17:01:50;8.60;74.70
22379;DHT22;11357;49.990;7.370;2023-03-04T17:04:17;8.60;74.70
22379;DHT22;11357;49.990;7.370;2023-03-04T17:06:42;8.70;74.70
22379;DHT22;11357;49.990;7.370;2023-03-04T17:09:08;8.70;74.60
22379;DHT22;11357;49.990;7.370;2023-03-04T17:11:35;8.70;74.60
22379;DHT22;11357;49.990;7.370;2023-03-04T17:14:01;8.70;74.60
22379;DHT22;11357;49.990;7.370;2023-03-04T17:16:27;8.70;74.60
22379;DHT22;11357;49.990;7.370;2023-03-04T17:18:53;8.70;74.60
22379;DHT22;11357;49.990;7.370;2023-03-04T17:21:23;8.60;74.50
22379;DHT22;11357;49.990;7.370;2023-03-04T17:23:49;8.60;74.50
22379;DHT22;11357;49.990;7.370;2023-03-04T17:26:16;8.60;74.50
22379;DHT22;11357;49.990;7.370;2023-03-04T17:28:47;8.60;74.60
22379;DHT22;11357;49.990;7.370;2023-03-04T17:31:15;8.50;74.50
22379;DHT22;11357;49.990;7.370;2023-03-04T17:33:42;8.50;74.70
22379;DHT22;11357;49.990;7.370;2023-03-04T17:36:13;8.50;74.70
22379;DHT22;11357;49.990;7.370;2023-03-04T17:38:39;8.40;74.80
22379;DHT22;11357;49.990;7.370;2023-03-04T17:41:08;8.30;74.90
22379;DHT22;11357;49.990;7.370;2023-03-04T17:43:34;8.30;75.00
22379;DHT22;11357;49.990;7.370;2023-03-04T17:46:09;8.40;75.10
22379;DHT22;11357;49.990;7.370;2023-03-04T17:48:35;8.40;75.10
22379;DHT22;11357;49.990;7.370;2023-03-04T17:51:01;8.40;75.00
22379;DHT22;11357;49.990;7.370;2023-03-04T17:53:27;8.40;75.00
22379;DHT22;11357;49.990;7.370;2023-03-04T17:55:59;8.40;75.00
22379;DHT22;11357;49.990;7.370;2023-03-04T17:58:26;8.40;75.10
22379;DHT22;11357;49.990;7.370;2023-03-04T18:00:53;8.40;75.00
22379;DHT22;11357;49.990;7.370;2023-03-04T18:03:23;8.40;75.00
22379;DHT22;11357;49.990;7.370;2023-03-04T18:05:49;8.40;75.00
22379;DHT22;11357;49.990;7.370;2023-03-04T18:08:15;8.40;74.90
22379;DHT22;11357;49.990;7.370;2023-03-04T18:10:41;8.40;74.90
22379;DHT22;11357;49.990;7.370;2023-03-04T18:13:07;8.40;74.90
22379;DHT22;11357;49.990;7.370;2023-03-04T18:15:33;8.40;75.00
22379;DHT22;11357;49.990;7.370;2023-03-04T18:17:58;8.30;75.10
22379;DHT22;11357;49.990;7.370;2023-03-04T18:20:24;8.30;75.10
22379;DHT22;11357;49.990;7.370;2023-03-04T18:22:50;8.30;75.10
22379;DHT22;11357;49.990;7.370;2023-03-04T18:25:16;8.30;75.10
22379;DHT22;11357;49.990;7.370;2023-03-04T18:27:42;8.30;75.00